sensor_id;sensor_type;location;lat;lon;timestamp;temperature;humidity
67942;SHT31;54731;42.600;23.476;2023-03-15T00:01:25;5.62;44.81
67942;SHT31;54731;42.600;23.476;2023-03-15T00:03:50;5.57;44.94
67942;SHT31;54731;42.600;23.476;2023-03-15T00:06:15;5.56;44.88
67942;SHT31;54731;42.600;23.476;2023-03-15T00:08:41;5.56;44.78
67942;SHT31;54731;42.600;23.476;2023-03-15T00:11:06;5.56;44.77
67942;SHT31;54731;42.600;23.476;2023-03-15T00:13:32;5.55;44.29
67942;SHT31;54731;42.600;23.476;2023-03-15T00:15:59;5.52;44.36
67942;SHT31;54731;42.600;23.476;2023-03-15T00:18:26;5.52;44.51
67942;SHT31;54731;42.600;23.476;2023-03-15T00:20:51;5.46;44.68
67942;SHT31;54731;42.600;23.476;2023-03-15T00:23:16;5.36;44.53
67942;SHT31;54731;42.600;23.476;2023-03-15T00:25:46;5.42;44.36
67942;SHT31;54731;42.600;23.476;2023-03-15T00:28:12;5.46;44.23
67942;SHT31;54731;42.600;23.476;2023-03-15T00:30:38;5.49;44.01
67942;SHT31;54731;42.600;23.476;2023-03-15T00:33:03;5.45;44.17
67942;SHT31;54731;42.600;23.476;2023-03-15T00:35:28;5.43;43.78
67942;SHT31;54731;42.600;23.476;2023-03-15T00:37:55;5.45;44.36
67942;SHT31;54731;42.600;23.476;2023-03-15T00:40:21;5.45;44.00
67942;SHT31;54731;42.600;23.476;2023-03-15T00:42:46;5.45;44.06
67942;SHT31;54731;42.600;23.476;2023-03-15T00:45:11;5.43;44.38
67942;SHT31;54731;42.600;23.476;2023-03-15T00:47:37;5.40;44.49
67942;SHT31;54731;42.600;23.476;2023-03-15T00:50:02;5.43;44.41
67942;SHT31;54731;42.600;23.476;2023-03-15T00:52:33;5.45;43.91
67942;SHT31;54731;42.600;23.476;2023-03-15T00:54:58;5.43;44.19
67942;SHT31;54731;42.600;23.476;2023-03-15T00:57:24;5.50;44.82
67942;SHT31;54731;42.600;23.476;2023-03-15T00:59:49;5.49;44.72
67942;SHT31;54731;42.600;23.476;2023-03-15T01:02:14;5.52;44.57
67942;SHT31;54731;42.600;23.476;2023-03-15T01:04:39;5.50;44.45
67942;SHT31;54731;42.600;23.476;2023-03-15T01:07:05;5.50;45.01
67942;SHT31;54731;42.600;23.476;2023-03-15T01:09:30;5.55;43.46
67942;SHT31;54731;42.600;23.476;2023-03-15T01:11:57;5.60;43.51
67942;SHT31;54731;42.600;23.476;2023-03-15T01:14:22;5.49;43.74
67942;SHT31;54731;42.600;23.476;2023-03-15T01:16:47;5.47;44.37
67942;SHT31;54731;42.600;23.476;2023-03-15T01:19:13;5.43;43.75
67942;SHT31;54731;42.600;23.476;2023-03-15T01:21:39;5.43;44.17
67942;SHT31;54731;42.600;23.476;2023-03-15T01:24:04;5.42;44.45
67942;SHT31;54731;42.600;23.476;2023-03-15T01:26:30;5.47;44.12
67942;SHT31;54731;42.600;23.476;2023-03-15T01:28:55;5.47;44.53
67942;SHT31;54731;42.600;23.476;2023-03-15T01:31:26;5.40;44.03
67942;SHT31;54731;42.600;23.476;2023-03-15T01:33:53;5.52;44.52
67942;SHT31;54731;42.600;23.476;2023-03-15T01:36:18;5.55;44.41
67942;SHT31;54731;42.600;23.476;2023-03-15T01:38:44;5.62;44.02
67942;SHT31;54731;42.600;23.476;2023-03-15T01:41:13;5.57;44.16
67942;SHT31;54731;42.600;23.476;2023-03-15T01:43:38;5.46;44.45
67942;SHT31;54731;42.600;23.476;2023-03-15T01:46:11;5.49;44.95
67942;SHT31;54731;42.600;23.476;2023-03-15T01:49:01;5.52;44.51
67942;SHT31;54731;42.600;23.476;2023-03-15T01:54:02;5.52;44.51
67942;SHT31;54731;42.600;23.476;2023-03-15T01:56:29;5.52;44.70
67942;SHT31;54731;42.600;23.476;2023-03-15T01:58:56;5.56;44.09
67942;SHT31;54731;42.600;23.476;2023-03-15T02:01:23;5.59;45.25
67942;SHT31;54731;42.600;23.476;2023-03-15T02:03:53;5.56;45.14
67942;SHT31;54731;42.600;23.476;2023-03-15T02:06:20;5.50;45.42
67942;SHT31;54731;42.600;23.476;2023-03-15T02:08:53;5.49;45.14
67942;SHT31;54731;42.600;23.476;2023-03-15T02:11:20;5.36;45.25
67942;SHT31;54731;42.600;23.476;2023-03-15T02:13:47;5.29;46.51
67942;SHT31;54731;42.600;23.476;2023-03-15T02:16:14;5.25;46.43
67942;SHT31;54731;42.600;23.476;2023-03-15T02:18:39;5.28;46.99
67942;SHT31;54731;42.600;23.476;2023-03-15T02:23:57;5.38;48.18
67942;SHT31;54731;42.600;23.476;2023-03-15T02:26:38;5.34;48.30
67942;SHT31;54731;42.600;23.476;2023-03-15T02:29:04;5.36;46.23
67942;SHT31;54731;42.600;23.476;2023-03-15T02:31:30;5.36;46.37
67942;SHT31;54731;42.600;23.476;2023-03-15T02:33:55;5.36;46.72
67942;SHT31;54731;42.600;23.476;2023-03-15T02:36:28;5.36;46.20
67942;SHT31;54731;42.600;23.476;2023-03-15T02:38:55;5.32;47.83
67942;SHT31;54731;42.600;23.476;2023-03-15T02:41:31;5.29;46.50
67942;SHT31;54731;42.600;23.476;2023-03-15T02:44:03;5.31;46.56
67942;SHT31;54731;42.600;23.476;2023-03-15T02:46:30;5.31;46.44
67942;SHT31;54731;42.600;23.476;2023-03-15T02:48:56;5.31;46.87
67942;SHT31;54731;42.600;23.476;2023-03-15T02:51:23;5.28;47.54
67942;SHT31;54731;42.600;23.476;2023-03-15T02:53:49;5.36;46.55
67942;SHT31;54731;42.600;23.476;2023-03-15T02:56:14;5.35;46.42
67942;SHT31;54731;42.600;23.476;2023-03-15T02:58:41;5.34;47.23
67942;SHT31;54731;42.600;23.476;2023-03-15T03:01:06;5.28;48.53
67942;SHT31;54731;42.600;23.476;2023-03-15T03:03:31;5.32;47.92
67942;SHT31;54731;42.600;23.476;2023-03-15T03:05:57;5.32;48.27
67942;SHT31;54731;42.600;23.476;2023-03-15T03:08:22;5.22;49.00
67942;SHT31;54731;42.600;23.476;2023-03-15T03:10:47;5.19;49.32
67942;SHT31;54731;42.600;23.476;2023-03-15T03:13:12;5.19;49.37
67942;SHT31;54731;42.600;23.476;2023-03-15T03:15:38;5.14;49.56
67942;SHT31;54731;42.600;23.476;2023-03-15T03:18:03;5.04;49.93
67942;SHT31;54731;42.600;23.476;2023-03-15T03:20:28;5.01;49.91
67942;SHT31;54731;42.600;23.476;2023-03-15T03:22:54;4.95;50.50
67942;SHT31;54731;42.600;23.476;2023-03-15T03:25:19;5.01;50.14
67942;SHT31;54731;42.600;23.476;2023-03-15T03:27:44;5.02;50.31
67942;SHT31;54731;42.600;23.476;2023-03-15T03:30:12;5.01;50.51
67942;SHT31;54731;42.600;23.476;2023-03-15T03:32:39;4.99;50.48
67942;SHT31;54731;42.600;23.476;2023-03-15T03:35:05;5.05;49.75
67942;SHT31;54731;42.600;23.476;2023-03-15T03:37:31;5.09;49.85
67942;SHT31;54731;42.600;23.476;2023-03-15T03:39:57;5.04;50.16
67942;SHT31;54731;42.600;23.476;2023-03-15T03:42:22;4.98;50.01
67942;SHT31;54731;42.600;23.476;2023-03-15T03:44:47;4.91;51.81
67942;SHT31;54731;42.600;23.476;2023-03-15T03:47:13;4.96;51.09
67942;SHT31;54731;42.600;23.476;2023-03-15T03:49:38;4.95;50.38
67942;SHT31;54731;42.600;23.476;2023-03-15T03:52:03;4.91;50.76
67942;SHT31;54731;42.600;23.476;2023-03-15T03:54:29;4.88;49.97
67942;SHT31;54731;42.600;23.476;2023-03-15T03:56:54;4.85;50.00
67942;SHT31;54731;42.600;23.476;2023-03-15T03:59:19;4.84;50.38
67942;SHT31;54731;42.600;23.476;2023-03-15T04:01:45;4.85;50.62
67942;SHT31;54731;42.600;23.476;2023-03-15T04:04:10;4.87;50.73
67942;SHT31;54731;42.600;23.476;2023-03-15T04:06:35;4.87;50.51
67942;SHT31;54731;42.600;23.476;2023-03-15T04:09:00;4.87;50.76
67942;SHT31;54731;42.600;23.476;2023-03-15T04:11:26;4.81;50.86
67942;SHT31;54731;42.600;23.476;2023-03-15T04:13:54;4.84;50.68
67942;SHT31;54731;42.600;23.476;2023-03-15T04:16:20;4.94;50.54
67942;SHT31;54731;42.600;23.476;2023-03-15T04:18:46;4.89;51.06
67942;SHT31;54731;42.600;23.476;2023-03-15T04:21:11;4.80;50.73
67942;SHT31;54731;42.600;23.476;2023-03-15T04:23:37;4.85;50.41
67942;SHT31;54731;42.600;23.476;2023-03-15T04:26:03;4.82;51.39
67942;SHT31;54731;42.600;23.476;2023-03-15T04:28:29;4.82;51.86
67942;SHT31;54731;42.600;23.476;2023-03-15T04:30:54;4.82;51.49
67942;SHT31;54731;42.600;23.476;2023-03-15T04:33:19;4.84;51.42
67942;SHT31;54731;42.600;23.476;2023-03-15T04:35:45;4.75;51.37
67942;SHT31;54731;42.600;23.476;2023-03-15T04:38:10;4.78;52.04
67942;SHT31;54731;42.600;23.476;2023-03-15T04:40:35;4.88;52.29
67942;SHT31;54731;42.600;23.476;2023-03-15T04:43:03;4.82;52.46
67942;SHT31;54731;42.600;23.476;2023-03-15T04:45:29;4.88;52.46
67942;SHT31;54731;42.600;23.476;2023-03-15T04:47:55;4.89;51.91
67942;SHT31;54731;42.600;23.476;2023-03-15T04:50:21;4.94;51.68
67942;SHT31;54731;42.600;23.476;2023-03-15T04:52:47;4.95;50.46
67942;SHT31;54731;42.600;23.476;2023-03-15T04:55:13;4.94;50.75
67942;SHT31;54731;42.600;23.476;2023-03-15T04:57:38;4.84;49.45
67942;SHT31;54731;42.600;23.476;2023-03-15T05:00:06;4.82;50.11
67942;SHT31;54731;42.600;23.476;2023-03-15T05:02:32;4.78;50.57
67942;SHT31;54731;42.600;23.476;2023-03-15T05:04:57;4.65;50.97
67942;SHT31;54731;42.600;23.476;2023-03-15T05:07:22;4.68;51.46
67942;SHT31;54731;42.600;23.476;2023-03-15T05:09:48;4.75;52.06
67942;SHT31;54731;42.600;23.476;2023-03-15T05:12:13;4.80;52.23
67942;SHT31;54731;42.600;23.476;2023-03-15T05:14:38;4.82;52.30
67942;SHT31;54731;42.600;23.476;2023-03-15T05:17:04;4.91;52.72
67942;SHT31;54731;42.600;23.476;2023-03-15T05:19:29;4.89;52.10
67942;SHT31;54731;42.600;23.476;2023-03-15T05:21:54;4.94;52.10
67942;SHT31;54731;42.600;23.476;2023-03-15T05:24:20;5.01;52.36
67942;SHT31;54731;42.600;23.476;2023-03-15T05:26:46;4.98;52.17
67942;SHT31;54731;42.600;23.476;2023-03-15T05:29:12;4.95;53.27
67942;SHT31;54731;42.600;23.476;2023-03-15T05:31:38;5.01;53.49
67942;SHT31;54731;42.600;23.476;2023-03-15T05:34:04;5.09;53.18
67942;SHT31;54731;42.600;23.476;2023-03-15T05:36:30;5.15;53.59
67942;SHT31;54731;42.600;23.476;2023-03-15T05:38:55;5.18;53.71
67942;SHT31;54731;42.600;23.476;2023-03-15T05:41:21;5.15;53.21
67942;SHT31;54731;42.600;23.476;2023-03-15T05:43:46;5.12;53.31
67942;SHT31;54731;42.600;23.476;2023-03-15T05:46:12;5.14;53.66
67942;SHT31;54731;42.600;23.476;2023-03-15T05:48:37;5.09;53.23
67942;SHT31;54731;42.600;23.476;2023-03-15T05:51:03;5.14;53.17
67942;SHT31;54731;42.600;23.476;2023-03-15T05:53:28;5.11;53.28
67942;SHT31;54731;42.600;23.476;2023-03-15T05:55:53;5.07;53.29
67942;SHT31;54731;42.600;23.476;2023-03-15T05:58:19;5.12;53.28
67942;SHT31;54731;42.600;23.476;2023-03-15T06:00:44;5.05;53.16
67942;SHT31;54731;42.600;23.476;2023-03-15T06:03:09;5.02;53.27
67942;SHT31;54731;42.600;23.476;2023-03-15T06:05:34;5.12;54.06
67942;SHT31;54731;42.600;23.476;2023-03-15T06:08:00;5.12;54.76
67942;SHT31;54731;42.600;23.476;2023-03-15T06:10:25;5.22;54.02
67942;SHT31;54731;42.600;23.476;2023-03-15T06:12:50;5.36;53.46
67942;SHT31;54731;42.600;23.476;2023-03-15T06:15:16;5.40;53.58
67942;SHT31;54731;42.600;23.476;2023-03-15T06:17:41;5.46;53.61
67942;SHT31;54731;42.600;23.476;2023-03-15T06:20:07;5.50;53.12
67942;SHT31;54731;42.600;23.476;2023-03-15T06:22:33;5.52;53.19
67942;SHT31;54731;42.600;23.476;2023-03-15T06:25:01;5.67;52.32
67942;SHT31;54731;42.600;23.476;2023-03-15T06:27:26;5.74;52.75
67942;SHT31;54731;42.600;23.476;2023-03-15T06:29:52;5.87;52.13
67942;SHT31;54731;42.600;23.476;2023-03-15T06:32:17;5.98;52.09
67942;SHT31;54731;42.600;23.476;2023-03-15T06:34:42;6.04;51.82
67942;SHT31;54731;42.600;23.476;2023-03-15T06:37:08;5.93;50.25
67942;SHT31;54731;42.600;23.476;2023-03-15T06:39:34;5.91;51.38
67942;SHT31;54731;42.600;23.476;2023-03-15T06:41:59;6.06;52.06
67942;SHT31;54731;42.600;23.476;2023-03-15T06:44:24;6.10;52.18
67942;SHT31;54731;42.600;23.476;2023-03-15T06:46:50;6.00;52.77
67942;SHT31;54731;42.600;23.476;2023-03-15T06:49:15;6.04;52.92
67942;SHT31;54731;42.600;23.476;2023-03-15T06:51:40;5.96;53.20
67942;SHT31;54731;42.600;23.476;2023-03-15T06:54:05;6.00;53.45
67942;SHT31;54731;42.600;23.476;2023-03-15T06:56:31;6.06;53.65
67942;SHT31;54731;42.600;23.476;2023-03-15T06:58:56;6.07;54.37
67942;SHT31;54731;42.600;23.476;2023-03-15T07:01:21;5.94;54.91
67942;SHT31;54731;42.600;23.476;2023-03-15T07:03:47;6.00;55.28
67942;SHT31;54731;42.600;23.476;2023-03-15T07:06:12;5.97;55.25
67942;SHT31;54731;42.600;23.476;2023-03-15T07:08:37;5.94;55.20
67942;SHT31;54731;42.600;23.476;2023-03-15T07:11:03;5.91;54.89
67942;SHT31;54731;42.600;23.476;2023-03-15T07:13:28;5.96;54.43
67942;SHT31;54731;42.600;23.476;2023-03-15T07:15:54;5.71;54.96
67942;SHT31;54731;42.600;23.476;2023-03-15T07:18:20;5.65;55.43
67942;SHT31;54731;42.600;23.476;2023-03-15T07:20:46;5.71;55.26
67942;SHT31;54731;42.600;23.476;2023-03-15T07:23:11;5.74;54.47
67942;SHT31;54731;42.600;23.476;2023-03-15T07:25:36;5.80;54.72
67942;SHT31;54731;42.600;23.476;2023-03-15T07:28:02;5.97;54.41
67942;SHT31;54731;42.600;23.476;2023-03-15T07:30:27;6.10;54.28
67942;SHT31;54731;42.600;23.476;2023-03-15T07:32:52;6.17;54.01
67942;SHT31;54731;42.600;23.476;2023-03-15T07:35:18;6.37;53.53
67942;SHT31;54731;42.600;23.476;2023-03-15T07:37:43;6.41;52.80
67942;SHT31;54731;42.600;23.476;2023-03-15T07:40:09;6.58;52.30
67942;SHT31;54731;42.600;23.476;2023-03-15T07:42:35;6.73;52.71
67942;SHT31;54731;42.600;23.476;2023-03-15T07:45:02;6.91;52.26
67942;SHT31;54731;42.600;23.476;2023-03-15T07:47:27;7.02;52.40
67942;SHT31;54731;42.600;23.476;2023-03-15T07:49:52;7.03;51.73
67942;SHT31;54731;42.600;23.476;2023-03-15T07:52:18;7.05;51.80
67942;SHT31;54731;42.600;23.476;2023-03-15T07:54:44;7.19;51.74
67942;SHT31;54731;42.600;23.476;2023-03-15T07:57:09;7.27;51.30
67942;SHT31;54731;42.600;23.476;2023-03-15T08:15:02;7.92;51.01
67942;SHT31;54731;42.600;23.476;2023-03-15T08:17:27;7.92;50.78
67942;SHT31;54731;42.600;23.476;2023-03-15T08:19:53;8.03;50.14
67942;SHT31;54731;42.600;23.476;2023-03-15T08:22:18;8.18;49.79
67942;SHT31;54731;42.600;23.476;2023-03-15T08:24:43;8.12;50.25
67942;SHT31;54731;42.600;23.476;2023-03-15T08:27:09;8.28;50.04
67942;SHT31;54731;42.600;23.476;2023-03-15T08:29:34;8.05;50.02
67942;SHT31;54731;42.600;23.476;2023-03-15T08:31:59;7.90;50.50
67942;SHT31;54731;42.600;23.476;2023-03-15T08:34:25;8.12;51.43
67942;SHT31;54731;42.600;23.476;2023-03-15T08:36:50;8.32;50.10
67942;SHT31;54731;42.600;23.476;2023-03-15T08:39:15;8.46;50.12
67942;SHT31;54731;42.600;23.476;2023-03-15T08:41:42;8.50;49.71
67942;SHT31;54731;42.600;23.476;2023-03-15T08:44:07;8.41;48.90
67942;SHT31;54731;42.600;23.476;2023-03-15T08:46:32;8.45;49.32
67942;SHT31;54731;42.600;23.476;2023-03-15T08:48:58;8.49;49.52
67942;SHT31;54731;42.600;23.476;2023-03-15T08:51:24;8.55;49.60
67942;SHT31;54731;42.600;23.476;2023-03-15T08:53:50;8.63;49.81
67942;SHT31;54731;42.600;23.476;2023-03-15T08:56:15;8.77;49.87
67942;SHT31;54731;42.600;23.476;2023-03-15T08:58:40;9.01;49.62
67942;SHT31;54731;42.600;23.476;2023-03-15T09:01:05;9.11;48.52
67942;SHT31;54731;42.600;23.476;2023-03-15T09:03:31;9.14;48.34
67942;SHT31;54731;42.600;23.476;2023-03-15T09:05:57;9.24;47.69
67942;SHT31;54731;42.600;23.476;2023-03-15T09:08:23;9.14;48.12
67942;SHT31;54731;42.600;23.476;2023-03-15T09:10:52;9.28;48.54
67942;SHT31;54731;42.600;23.476;2023-03-15T09:13:18;9.38;47.04
67942;SHT31;54731;42.600;23.476;2023-03-15T09:15:43;9.49;46.69
67942;SHT31;54731;42.600;23.476;2023-03-15T09:18:08;9.52;45.61
67942;SHT31;54731;42.600;23.476;2023-03-15T09:20:34;9.61;46.52
67942;SHT31;54731;42.600;23.476;2023-03-15T09:22:59;9.68;46.98
67942;SHT31;54731;42.600;23.476;2023-03-15T09:25:25;9.65;46.55
67942;SHT31;54731;42.600;23.476;2023-03-15T09:27:50;9.79;46.71
67942;SHT31;54731;42.600;23.476;2023-03-15T09:30:16;9.63;46.32
67942;SHT31;54731;42.600;23.476;2023-03-15T09:32:42;9.72;46.94
67942;SHT31;54731;42.600;23.476;2023-03-15T09:35:11;9.92;47.31
67942;SHT31;54731;42.600;23.476;2023-03-15T09:37:37;10.10;47.07
67942;SHT31;54731;42.600;23.476;2023-03-15T09:40:03;10.13;45.13
67942;SHT31;54731;42.600;23.476;2023-03-15T09:48:13;10.28;44.72
67942;SHT31;54731;42.600;23.476;2023-03-15T09:55:50;10.73;44.04
67942;SHT31;54731;42.600;23.476;2023-03-15T09:58:27;10.67;43.06
67942;SHT31;54731;42.600;23.476;2023-03-15T10:19:00;10.94;41.93
67942;SHT31;54731;42.600;23.476;2023-03-15T10:25:10;11.18;42.84
67942;SHT31;54731;42.600;23.476;2023-03-15T10:27:18;11.10;42.30
67942;SHT31;54731;42.600;23.476;2023-03-15T10:29:45;11.27;42.49
67942;SHT31;54731;42.600;23.476;2023-03-15T10:32:15;11.43;42.72
67942;SHT31;54731;42.600;23.476;2023-03-15T10:34:42;11.58;43.22
67942;SHT31;54731;42.600;23.476;2023-03-15T10:37:08;11.45;41.36
67942;SHT31;54731;42.600;23.476;2023-03-15T10:39:33;11.19;42.13
67942;SHT31;54731;42.600;23.476;2023-03-15T10:41:59;11.31;43.28
67942;SHT31;54731;42.600;23.476;2023-03-15T10:44:26;11.55;42.85
67942;SHT31;54731;42.600;23.476;2023-03-15T10:47:20;11.68;42.32
67942;SHT31;54731;42.600;23.476;2023-03-15T10:49:46;11.82;42.70
67942;SHT31;54731;42.600;23.476;2023-03-15T10:52:31;11.85;41.40
67942;SHT31;54731;42.600;23.476;2023-03-15T10:55:24;11.97;42.02
67942;SHT31;54731;42.600;23.476;2023-03-15T10:57:53;12.17;40.24
67942;SHT31;54731;42.600;23.476;2023-03-15T11:03:05;12.03;40.28
67942;SHT31;54731;42.600;23.476;2023-03-15T11:05:38;12.10;40.47
67942;SHT31;54731;42.600;23.476;2023-03-15T11:08:10;12.09;41.19
67942;SHT31;54731;42.600;23.476;2023-03-15T11:10:36;12.12;40.38
67942;SHT31;54731;42.600;23.476;2023-03-15T11:13:20;12.12;40.22
67942;SHT31;54731;42.600;23.476;2023-03-15T11:18:45;11.92;41.16
67942;SHT31;54731;42.600;23.476;2023-03-15T11:21:15;11.94;40.63
67942;SHT31;54731;42.600;23.476;2023-03-15T11:23:49;12.07;40.23
67942;SHT31;54731;42.600;23.476;2023-03-15T11:26:20;11.80;40.93
67942;SHT31;54731;42.600;23.476;2023-03-15T11:28:49;11.99;41.24
67942;SHT31;54731;42.600;23.476;2023-03-15T11:31:15;12.13;40.50
67942;SHT31;54731;42.600;23.476;2023-03-15T11:34:05;11.99;41.14
67942;SHT31;54731;42.600;23.476;2023-03-15T11:36:35;12.06;45.05
67942;SHT31;54731;42.600;23.476;2023-03-15T11:39:02;12.33;43.66
67942;SHT31;54731;42.600;23.476;2023-03-15T11:41:41;11.90;41.15
67942;SHT31;54731;42.600;23.476;2023-03-15T11:44:27;11.94;42.32
67942;SHT31;54731;42.600;23.476;2023-03-15T11:49:52;11.80;42.45
67942;SHT31;54731;42.600;23.476;2023-03-15T11:52:20;11.93;40.76
67942;SHT31;54731;42.600;23.476;2023-03-15T11:54:46;12.12;40.37
67942;SHT31;54731;42.600;23.476;2023-03-15T11:57:34;11.92;39.91
67942;SHT31;54731;42.600;23.476;2023-03-15T12:02:51;11.89;41.39
67942;SHT31;54731;42.600;23.476;2023-03-15T12:08:52;11.85;42.53
67942;SHT31;54731;42.600;23.476;2023-03-15T12:14:19;12.24;41.32
67942;SHT31;54731;42.600;23.476;2023-03-15T12:16:45;12.31;40.55
67942;SHT31;54731;42.600;23.476;2023-03-15T12:19:18;12.36;40.11
67942;SHT31;54731;42.600;23.476;2023-03-15T12:21:52;12.41;40.02
67942;SHT31;54731;42.600;23.476;2023-03-15T12:24:30;12.34;40.85
67942;SHT31;54731;42.600;23.476;2023-03-15T12:27:05;12.36;41.17
67942;SHT31;54731;42.600;23.476;2023-03-15T12:29:43;12.12;40.79
67942;SHT31;54731;42.600;23.476;2023-03-15T12:32:16;12.12;40.72
67942;SHT31;54731;42.600;23.476;2023-03-15T12:34:48;12.17;40.54
67942;SHT31;54731;42.600;23.476;2023-03-15T12:37:37;12.36;41.02
67942;SHT31;54731;42.600;23.476;2023-03-15T12:56:18;12.09;41.55
67942;SHT31;54731;42.600;23.476;2023-03-15T12:58:46;11.99;40.46
67942;SHT31;54731;42.600;23.476;2023-03-15T13:01:15;12.03;40.86
67942;SHT31;54731;42.600;23.476;2023-03-15T13:03:41;12.13;41.26
67942;SHT31;54731;42.600;23.476;2023-03-15T13:12:04;12.12;41.92
67942;SHT31;54731;42.600;23.476;2023-03-15T13:14:37;12.17;41.47
67942;SHT31;54731;42.600;23.476;2023-03-15T13:23:15;12.17;41.50
67942;SHT31;54731;42.600;23.476;2023-03-15T13:25:57;12.10;40.71
67942;SHT31;54731;42.600;23.476;2023-03-15T13:30:59;11.94;41.22
67942;SHT31;54731;42.600;23.476;2023-03-15T13:33:31;11.99;41.52
67942;SHT31;54731;42.600;23.476;2023-03-15T13:36:01;11.92;42.19
67942;SHT31;54731;42.600;23.476;2023-03-15T13:38:31;11.93;42.73
67942;SHT31;54731;42.600;23.476;2023-03-15T13:40:59;11.99;42.58
67942;SHT31;54731;42.600;23.476;2023-03-15T13:43:30;12.07;41.14
67942;SHT31;54731;42.600;23.476;2023-03-15T13:45:57;12.10;41.59
67942;SHT31;54731;42.600;23.476;2023-03-15T13:48:22;12.16;41.92
67942;SHT31;54731;42.600;23.476;2023-03-15T13:50:51;12.06;41.01
67942;SHT31;54731;42.600;23.476;2023-03-15T13:53:24;12.06;41.48
67942;SHT31;54731;42.600;23.476;2023-03-15T13:55:53;11.99;43.05
67942;SHT31;54731;42.600;23.476;2023-03-15T13:58:21;11.96;43.19
67942;SHT31;54731;42.600;23.476;2023-03-15T14:00:46;11.97;42.77
67942;SHT31;54731;42.600;23.476;2023-03-15T14:03:15;12.07;42.65
67942;SHT31;54731;42.600;23.476;2023-03-15T14:05:48;12.07;42.51
67942;SHT31;54731;42.600;23.476;2023-03-15T14:08:35;12.16;41.88
67942;SHT31;54731;42.600;23.476;2023-03-15T14:11:38;12.12;41.91
67942;SHT31;54731;42.600;23.476;2023-03-15T14:14:20;12.22;41.93
67942;SHT31;54731;42.600;23.476;2023-03-15T14:16:47;12.27;42.33
67942;SHT31;54731;42.600;23.476;2023-03-15T14:21:44;12.16;43.39
67942;SHT31;54731;42.600;23.476;2023-03-15T14:24:39;12.14;41.98
67942;SHT31;54731;42.600;23.476;2023-03-15T14:27:08;12.14;41.32
67942;SHT31;54731;42.600;23.476;2023-03-15T14:29:48;12.16;42.03
67942;SHT31;54731;42.600;23.476;2023-03-15T14:35:03;12.17;42.52
67942;SHT31;54731;42.600;23.476;2023-03-15T14:37:40;12.22;42.68
67942;SHT31;54731;42.600;23.476;2023-03-15T14:40:16;11.97;44.41
67942;SHT31;54731;42.600;23.476;2023-03-15T14:42:43;11.85;45.37
67942;SHT31;54731;42.600;23.476;2023-03-15T14:45:09;11.70;45.88
67942;SHT31;54731;42.600;23.476;2023-03-15T14:47:38;11.10;48.13
67942;SHT31;54731;42.600;23.476;2023-03-15T14:50:12;10.83;49.96
67942;SHT31;54731;42.600;23.476;2023-03-15T14:52:37;10.85;50.37
67942;SHT31;54731;42.600;23.476;2023-03-15T14:55:03;10.83;50.82
67942;SHT31;54731;42.600;23.476;2023-03-15T14:57:28;10.93;49.93
67942;SHT31;54731;42.600;23.476;2023-03-15T14:59:54;10.77;49.98
67942;SHT31;54731;42.600;23.476;2023-03-15T15:02:19;10.67;50.30
67942;SHT31;54731;42.600;23.476;2023-03-15T15:04:44;10.60;51.35
67942;SHT31;54731;42.600;23.476;2023-03-15T15:07:11;10.63;51.49
67942;SHT31;54731;42.600;23.476;2023-03-15T15:09:47;10.70;50.52
67942;SHT31;54731;42.600;23.476;2023-03-15T15:12:13;10.64;51.20
67942;SHT31;54731;42.600;23.476;2023-03-15T15:14:38;10.34;52.20
67942;SHT31;54731;42.600;23.476;2023-03-15T15:17:03;10.39;52.55
67942;SHT31;54731;42.600;23.476;2023-03-15T15:19:29;10.54;52.33
67942;SHT31;54731;42.600;23.476;2023-03-15T15:21:54;10.57;52.73
67942;SHT31;54731;42.600;23.476;2023-03-15T15:24:21;10.63;52.76
67942;SHT31;54731;42.600;23.476;2023-03-15T15:26:48;10.67;52.71
67942;SHT31;54731;42.600;23.476;2023-03-15T15:29:14;10.66;53.41
67942;SHT31;54731;42.600;23.476;2023-03-15T15:31:41;10.63;53.37
67942;SHT31;54731;42.600;23.476;2023-03-15T15:34:07;10.63;53.37
67942;SHT31;54731;42.600;23.476;2023-03-15T15:36:35;10.54;53.75
67942;SHT31;54731;42.600;23.476;2023-03-15T15:39:02;10.47;53.58
67942;SHT31;54731;42.600;23.476;2023-03-15T15:41:29;10.47;53.90
67942;SHT31;54731;42.600;23.476;2023-03-15T15:43:54;10.53;54.44
67942;SHT31;54731;42.600;23.476;2023-03-15T15:46:20;10.53;53.39
67942;SHT31;54731;42.600;23.476;2023-03-15T15:48:45;10.52;53.79
67942;SHT31;54731;42.600;23.476;2023-03-15T15:53:42;10.43;53.93
67942;SHT31;54731;42.600;23.476;2023-03-15T15:56:09;10.44;54.26
67942;SHT31;54731;42.600;23.476;2023-03-15T15:58:35;10.44;54.09
67942;SHT31;54731;42.600;23.476;2023-03-15T16:01:00;10.43;54.30
67942;SHT31;54731;42.600;23.476;2023-03-15T16:03:26;10.37;54.53
67942;SHT31;54731;42.600;23.476;2023-03-15T16:05:51;10.39;54.98
67942;SHT31;54731;42.600;23.476;2023-03-15T16:08:21;10.30;55.13
67942;SHT31;54731;42.600;23.476;2023-03-15T16:10:48;10.30;55.18
67942;SHT31;54731;42.600;23.476;2023-03-15T16:13:14;10.24;55.58
67942;SHT31;54731;42.600;23.476;2023-03-15T16:15:39;10.16;55.72
67942;SHT31;54731;42.600;23.476;2023-03-15T16:18:09;10.08;56.08
67942;SHT31;54731;42.600;23.476;2023-03-15T16:20:34;10.03;56.49
67942;SHT31;54731;42.600;23.476;2023-03-15T16:23:00;9.88;57.31
67942;SHT31;54731;42.600;23.476;2023-03-15T16:25:28;9.78;57.61
67942;SHT31;54731;42.600;23.476;2023-03-15T16:27:54;9.81;58.00
67942;SHT31;54731;42.600;23.476;2023-03-15T16:30:27;9.82;58.34
67942;SHT31;54731;42.600;23.476;2023-03-15T16:32:53;9.78;57.93
67942;SHT31;54731;42.600;23.476;2023-03-15T16:35:18;9.79;57.89
67942;SHT31;54731;42.600;23.476;2023-03-15T16:37:44;9.77;58.14
67942;SHT31;54731;42.600;23.476;2023-03-15T16:40:21;9.78;58.30
67942;SHT31;54731;42.600;23.476;2023-03-15T16:42:48;9.75;58.31
67942;SHT31;54731;42.600;23.476;2023-03-15T16:45:14;9.74;58.62
67942;SHT31;54731;42.600;23.476;2023-03-15T16:47:40;9.68;58.82
67942;SHT31;54731;42.600;23.476;2023-03-15T16:50:05;9.68;59.50
67942;SHT31;54731;42.600;23.476;2023-03-15T16:52:31;9.62;59.58
67942;SHT31;54731;42.600;23.476;2023-03-15T16:54:57;9.62;60.29
67942;SHT31;54731;42.600;23.476;2023-03-15T16:57:22;9.58;61.00
67942;SHT31;54731;42.600;23.476;2023-03-15T16:59:48;9.52;61.52
67942;SHT31;54731;42.600;23.476;2023-03-15T17:02:25;9.39;62.10
67942;SHT31;54731;42.600;23.476;2023-03-15T17:04:50;9.34;62.53
67942;SHT31;54731;42.600;23.476;2023-03-15T17:07:16;9.31;62.67
67942;SHT31;54731;42.600;23.476;2023-03-15T17:09:43;9.26;63.33
67942;SHT31;54731;42.600;23.476;2023-03-15T17:12:29;9.26;63.44
67942;SHT31;54731;42.600;23.476;2023-03-15T17:14:56;9.14;63.39
67942;SHT31;54731;42.600;23.476;2023-03-15T17:17:25;9.10;63.58